sensor_id;sensor_type;location;lat;lon;timestamp;pressure;altitude;pressure_sealevel;temperature;humidity
63535;BME280;55128;50.230;18.944;2023-02-02T00:04:01;97586.19;;;2.18;83.12
63535;BME280;55128;50.230;18.944;2023-02-02T00:09:02;97576.91;;;2.07;83.04
63535;BME280;55128;50.230;18.944;2023-02-02T00:14:03;97581.81;;;1.88;83.75
63535;BME280;55128;50.230;18.944;2023-02-02T00:19:08;97589.69;;;1.88;84.08
63535;BME280;55128;50.230;18.944;2023-02-02T00:24:10;97599.06;;;1.96;83.96
63535;BME280;55128;50.230;18.944;2023-02-02T00:29:20;97599.22;;;1.89;83.83
63535;BME280;55128;50.230;18.944;2023-02-02T00:34:21;97601.97;;;1.85;83.81
63535;BME280;55128;50.230;18.944;2023-02-02T00:39:23;97610.25;;;1.69;84.58
63535;BME280;55128;50.230;18.944;2023-02-02T00:44:26;97613.47;;;1.79;84.60
63535;BME280;55128;50.230;18.944;2023-02-02T00:49:45;97617.16;;;1.72;84.44
63535;BME280;55128;50.230;18.944;2023-02-02T00:54:45;97616.09;;;1.79;84.74
63535;BME280;55128;50.230;18.944;2023-02-02T00:59:46;97608.59;;;1.98;84.54
63535;BME280;55128;50.230;18.944;2023-02-02T01:04:46;97610.50;;;1.91;84.15
63535;BME280;55128;50.230;18.944;2023-02-02T01:09:46;97617.38;;;1.96;84.07
63535;BME280;55128;50.230;18.944;2023-02-02T01:14:47;97615.41;;;2.04;84.29
63535;BME280;55128;50.230;18.944;2023-02-02T01:19:47;97623.44;;;1.98;84.23
63535;BME280;55128;50.230;18.944;2023-02-02T01:24:48;97624.59;;;2.19;83.55
63535;BME280;55128;50.230;18.944;2023-02-02T01:29:48;97631.31;;;2.27;83.20
63535;BME280;55128;50.230;18.944;2023-02-02T01:34:48;97628.16;;;2.16;83.23
63535;BME280;55128;50.230;18.944;2023-02-02T01:39:49;97633.94;;;2.27;83.16
63535;BME280;55128;50.230;18.944;2023-02-02T01:45:20;97635.75;;;2.25;83.60
63535;BME280;55128;50.230;18.944;2023-02-02T01:50:24;97639.00;;;2.33;83.41
63535;BME280;55128;50.230;18.944;2023-02-02T01:55:27;97630.66;;;2.19;83.36
63535;BME280;55128;50.230;18.944;2023-02-02T02:00:29;97635.69;;;2.27;83.67
63535;BME280;55128;50.230;18.944;2023-02-02T02:05:51;97635.47;;;2.34;83.47
63535;BME280;55128;50.230;18.944;2023-02-02T02:10:53;97647.16;;;2.23;83.58
63535;BME280;55128;50.230;18.944;2023-02-02T02:16:03;97652.06;;;2.35;83.39
63535;BME280;55128;50.230;18.944;2023-02-02T02:21:42;97657.31;;;2.33;83.69
63535;BME280;55128;50.230;18.944;2023-02-02T02:32:37;97655.38;;;2.40;83.28
63535;BME280;55128;50.230;18.944;2023-02-02T02:38:08;97670.34;;;2.37;83.64
63535;BME280;55128;50.230;18.944;2023-02-02T02:43:13;97677.19;;;2.41;83.03
63535;BME280;55128;50.230;18.944;2023-02-02T02:48:15;97686.88;;;2.39;83.02
63535;BME280;55128;50.230;18.944;2023-02-02T02:53:22;97680.81;;;2.37;84.01
63535;BME280;55128;50.230;18.944;2023-02-02T03:08:59;97688.84;;;2.60;82.67
63535;BME280;55128;50.230;18.944;2023-02-02T03:14:02;97687.03;;;2.62;82.77
63535;BME280;55128;50.230;18.944;2023-02-02T03:19:04;97688.84;;;2.60;83.02
63535;BME280;55128;50.230;18.944;2023-02-02T03:24:05;97694.00;;;2.63;82.45
63535;BME280;55128;50.230;18.944;2023-02-02T03:29:06;97686.81;;;2.70;82.57
63535;BME280;55128;50.230;18.944;2023-02-02T03:34:06;97695.13;;;2.84;82.40
63535;BME280;55128;50.230;18.944;2023-02-02T03:39:06;97701.41;;;2.79;82.52
63535;BME280;55128;50.230;18.944;2023-02-02T03:44:07;97702.59;;;2.68;82.24
63535;BME280;55128;50.230;18.944;2023-02-02T03:49:07;97688.00;;;2.60;82.94
63535;BME280;55128;50.230;18.944;2023-02-02T03:54:07;97697.22;;;2.73;82.62
63535;BME280;55128;50.230;18.944;2023-02-02T03:59:08;97696.25;;;2.76;82.64
63535;BME280;55128;50.230;18.944;2023-02-02T04:04:08;97696.47;;;2.98;81.88
63535;BME280;55128;50.230;18.944;2023-02-02T04:09:08;97683.56;;;2.91;81.93
63535;BME280;55128;50.230;18.944;2023-02-02T04:14:09;97679.31;;;2.87;82.28
63535;BME280;55128;50.230;18.944;2023-02-02T04:19:09;97680.09;;;2.91;81.97
63535;BME280;55128;50.230;18.944;2023-02-02T04:24:13;97679.25;;;2.89;82.05
63535;BME280;55128;50.230;18.944;2023-02-02T04:29:13;97678.38;;;2.90;81.52
63535;BME280;55128;50.230;18.944;2023-02-02T04:34:14;97671.47;;;2.87;81.38
63535;BME280;55128;50.230;18.944;2023-02-02T04:39:14;97668.72;;;2.90;81.56
63535;BME280;55128;50.230;18.944;2023-02-02T04:44:15;97668.19;;;2.79;81.59
63535;BME280;55128;50.230;18.944;2023-02-02T04:49:15;97674.00;;;2.89;81.60
63535;BME280;55128;50.230;18.944;2023-02-02T04:54:16;97671.59;;;2.83;80.40
63535;BME280;55128;50.230;18.944;2023-02-02T04:59:17;97671.09;;;2.98;80.04
63535;BME280;55128;50.230;18.944;2023-02-02T05:04:17;97668.69;;;2.92;80.20
63535;BME280;55128;50.230;18.944;2023-02-02T05:09:17;97683.59;;;2.90;79.64
63535;BME280;55128;50.230;18.944;2023-02-02T05:14:18;97671.34;;;2.90;79.25
63535;BME280;55128;50.230;18.944;2023-02-02T05:19:19;97674.13;;;2.86;79.08
63535;BME280;55128;50.230;18.944;2023-02-02T05:24:19;97666.47;;;2.80;78.38
63535;BME280;55128;50.230;18.944;2023-02-02T05:29:20;97650.72;;;2.80;78.63
63535;BME280;55128;50.230;18.944;2023-02-02T05:34:20;97661.06;;;2.84;78.12
63535;BME280;55128;50.230;18.944;2023-02-02T05:39:21;97669.41;;;2.97;77.89
63535;BME280;55128;50.230;18.944;2023-02-02T05:44:21;97664.22;;;2.96;77.75
63535;BME280;55128;50.230;18.944;2023-02-02T05:49:22;97657.34;;;2.91;78.17
63535;BME280;55128;50.230;18.944;2023-02-02T05:54:23;97657.25;;;2.95;77.95
63535;BME280;55128;50.230;18.944;2023-02-02T05:59:23;97652.63;;;3.03;77.98
63535;BME280;55128;50.230;18.944;2023-02-02T06:04:24;97648.00;;;3.11;77.11
63535;BME280;55128;50.230;18.944;2023-02-02T06:09:24;97651.03;;;2.99;77.55
63535;BME280;55128;50.230;18.944;2023-02-02T06:14:25;97651.94;;;2.96;77.97
63535;BME280;55128;50.230;18.944;2023-02-02T06:19:25;97649.34;;;2.96;77.45
63535;BME280;55128;50.230;18.944;2023-02-02T06:24:26;97661.44;;;3.00;78.20
63535;BME280;55128;50.230;18.944;2023-02-02T06:29:26;97661.44;;;3.00;77.84
63535;BME280;55128;50.230;18.944;2023-02-02T06:34:26;97679.50;;;3.09;77.42
63535;BME280;55128;50.230;18.944;2023-02-02T06:39:27;97682.94;;;3.11;76.34
63535;BME280;55128;50.230;18.944;2023-02-02T06:44:27;97676.56;;;2.92;77.92
63535;BME280;55128;50.230;18.944;2023-02-02T06:49:28;97679.44;;;2.83;78.15
63535;BME280;55128;50.230;18.944;2023-02-02T06:54:28;97674.53;;;2.72;79.44
63535;BME280;55128;50.230;18.944;2023-02-02T06:59:29;97675.06;;;2.83;79.74
63535;BME280;55128;50.230;18.944;2023-02-02T07:04:29;97660.84;;;2.62;80.00
63535;BME280;55128;50.230;18.944;2023-02-02T07:09:33;97661.03;;;2.56;81.10
63535;BME280;55128;50.230;18.944;2023-02-02T07:14:33;97657.03;;;2.74;80.51
63535;BME280;55128;50.230;18.944;2023-02-02T07:19:33;97660.69;;;2.68;80.28
63535;BME280;55128;50.230;18.944;2023-02-02T07:24:34;97664.16;;;2.69;80.27
63535;BME280;55128;50.230;18.944;2023-02-02T07:29:34;97666.72;;;2.70;80.30
63535;BME280;55128;50.230;18.944;2023-02-02T07:34:38;97672.75;;;2.74;80.22
63535;BME280;55128;50.230;18.944;2023-02-02T07:39:39;97670.84;;;2.78;80.12
63535;BME280;55128;50.230;18.944;2023-02-02T07:44:39;97668.78;;;2.89;79.98
63535;BME280;55128;50.230;18.944;2023-02-02T07:49:39;97665.25;;;2.90;79.72
63535;BME280;55128;50.230;18.944;2023-02-02T07:54:40;97663.38;;;2.95;79.99
63535;BME280;55128;50.230;18.944;2023-02-02T07:59:40;97662.34;;;2.99;79.40
63535;BME280;55128;50.230;18.944;2023-02-02T08:04:41;97670.34;;;2.95;79.89
63535;BME280;55128;50.230;18.944;2023-02-02T08:09:44;97678.13;;;2.98;79.80
63535;BME280;55128;50.230;18.944;2023-02-02T08:14:45;97664.13;;;2.99;79.80
63535;BME280;55128;50.230;18.944;2023-02-02T08:19:45;97675.53;;;2.96;79.93
63535;BME280;55128;50.230;18.944;2023-02-02T08:24:46;97680.69;;;2.99;80.36
63535;BME280;55128;50.230;18.944;2023-02-02T08:29:47;97679.69;;;3.03;80.11
63535;BME280;55128;50.230;18.944;2023-02-02T08:34:50;97675.97;;;3.10;80.48
63535;BME280;55128;50.230;18.944;2023-02-02T08:39:53;97678.53;;;3.14;80.45
63535;BME280;55128;50.230;18.944;2023-02-02T08:44:54;97674.13;;;3.14;81.00
63535;BME280;55128;50.230;18.944;2023-02-02T08:49:54;97691.78;;;3.07;80.84
63535;BME280;55128;50.230;18.944;2023-02-02T08:54:54;97695.72;;;3.22;80.71
63535;BME280;55128;50.230;18.944;2023-02-02T08:59:55;97705.56;;;3.16;81.07
63535;BME280;55128;50.230;18.944;2023-02-02T09:04:55;97703.22;;;3.06;81.89
63535;BME280;55128;50.230;18.944;2023-02-02T09:09:55;97714.88;;;2.96;82.67
63535;BME280;55128;50.230;18.944;2023-02-02T09:14:57;97717.41;;;3.27;82.31
63535;BME280;55128;50.230;18.944;2023-02-02T09:19:57;97726.66;;;3.39;81.73
63535;BME280;55128;50.230;18.944;2023-02-02T09:24:57;97726.38;;;3.20;81.93
63535;BME280;55128;50.230;18.944;2023-02-02T09:29:59;97730.84;;;3.17;82.29
63535;BME280;55128;50.230;18.944;2023-02-02T09:34:59;97740.25;;;2.94;82.13
63535;BME280;55128;50.230;18.944;2023-02-02T09:40:00;97739.03;;;3.06;82.58
63535;BME280;55128;50.230;18.944;2023-02-02T09:45:18;97744.88;;;3.16;82.77
63535;BME280;55128;50.230;18.944;2023-02-02T09:50:56;97754.69;;;3.09;83.02
63535;BME280;55128;50.230;18.944;2023-02-02T09:56:03;97758.03;;;3.14;83.39
63535;BME280;55128;50.230;18.944;2023-02-02T10:01:26;97775.69;;;3.37;83.04
63535;BME280;55128;50.230;18.944;2023-02-02T10:06:35;97773.97;;;3.36;82.43
63535;BME280;55128;50.230;18.944;2023-02-02T10:11:44;97782.75;;;3.35;83.28
63535;BME280;55128;50.230;18.944;2023-02-02T10:16:48;97796.47;;;3.43;83.46
63535;BME280;55128;50.230;18.944;2023-02-02T10:22:21;97793.47;;;3.56;83.40
63535;BME280;55128;50.230;18.944;2023-02-02T10:27:38;97803.53;;;3.69;82.84
63535;BME280;55128;50.230;18.944;2023-02-02T10:32:47;97804.84;;;3.83;82.12
63535;BME280;55128;50.230;18.944;2023-02-02T10:43:57;97814.56;;;4.07;81.76
63535;BME280;55128;50.230;18.944;2023-02-02T10:59:58;97827.31;;;4.18;80.31
63535;BME280;55128;50.230;18.944;2023-02-02T11:05:00;97826.44;;;4.19;80.06
63535;BME280;55128;50.230;18.944;2023-02-02T11:10:19;97833.34;;;4.22;80.45
63535;BME280;55128;50.230;18.944;2023-02-02T11:15:25;97849.63;;;4.06;80.74
63535;BME280;55128;50.230;18.944;2023-02-02T11:20:34;97845.91;;;4.39;80.89
63535;BME280;55128;50.230;18.944;2023-02-02T11:25:36;97849.03;;;5.00;79.96
63535;BME280;55128;50.230;18.944;2023-02-02T11:30:39;97863.97;;;5.00;78.38
63535;BME280;55128;50.230;18.944;2023-02-02T11:35:52;97860.72;;;5.17;77.56
63535;BME280;55128;50.230;18.944;2023-02-02T11:41:01;97870.44;;;5.38;76.79
63535;BME280;55128;50.230;18.944;2023-02-02T11:46:05;97872.75;;;4.99;77.64
63535;BME280;55128;50.230;18.944;2023-02-02T11:51:08;97879.31;;;4.87;77.16
63535;BME280;55128;50.230;18.944;2023-02-02T11:56:24;97872.13;;;4.92;77.37
63535;BME280;55128;50.230;18.944;2023-02-02T12:01:30;97884.63;;;4.60;76.99
63535;BME280;55128;50.230;18.944;2023-02-02T12:06:37;97880.47;;;4.53;77.12
63535;BME280;55128;50.230;18.944;2023-02-02T12:22:14;97909.28;;;4.56;76.49
63535;BME280;55128;50.230;18.944;2023-02-02T12:27:45;97921.97;;;4.43;77.55
63535;BME280;55128;50.230;18.944;2023-02-02T12:33:43;97920.44;;;4.36;77.81
63535;BME280;55128;50.230;18.944;2023-02-02T12:38:29;97931.44;;;4.49;76.66
63535;BME280;55128;50.230;18.944;2023-02-02T12:43:44;97932.03;;;4.57;76.77
63535;BME280;55128;50.230;18.944;2023-02-02T12:48:54;97940.97;;;4.52;76.38
63535;BME280;55128;50.230;18.944;2023-02-02T12:54:04;97954.41;;;4.69;76.23
63535;BME280;55128;50.230;18.944;2023-02-02T13:15:03;97971.44;;;5.11;74.54
63535;BME280;55128;50.230;18.944;2023-02-02T13:25:30;97972.06;;;5.17;73.29
63535;BME280;55128;50.230;18.944;2023-02-02T13:30:37;97974.56;;;5.22;73.58
63535;BME280;55128;50.230;18.944;2023-02-02T13:35:48;97974.88;;;5.13;72.98
63535;BME280;55128;50.230;18.944;2023-02-02T13:40:53;97980.81;;;5.18;73.36
63535;BME280;55128;50.230;18.944;2023-02-02T13:46:10;97995.97;;;5.11;73.47
63535;BME280;55128;50.230;18.944;2023-02-02T13:56:38;98009.34;;;5.30;72.78
63535;BME280;55128;50.230;18.944;2023-02-02T14:01:47;98021.38;;;5.37;72.41
63535;BME280;55128;50.230;18.944;2023-02-02T14:06:54;98029.50;;;5.31;71.70
63535;BME280;55128;50.230;18.944;2023-02-02T14:11:58;98033.41;;;5.44;69.70
63535;BME280;55128;50.230;18.944;2023-02-02T14:22:39;98046.88;;;5.09;67.56
63535;BME280;55128;50.230;18.944;2023-02-02T14:27:52;98061.09;;;5.03;68.16
63535;BME280;55128;50.230;18.944;2023-02-02T14:43:31;98092.16;;;4.92;65.65
63535;BME280;55128;50.230;18.944;2023-02-02T14:48:47;98099.16;;;4.64;65.55
63535;BME280;55128;50.230;18.944;2023-02-02T14:53:49;98101.63;;;4.69;65.61
63535;BME280;55128;50.230;18.944;2023-02-02T14:58:56;98121.91;;;4.65;65.87
63535;BME280;55128;50.230;18.944;2023-02-02T15:04:24;98123.94;;;4.56;65.89
63535;BME280;55128;50.230;18.944;2023-02-02T15:09:25;98144.69;;;4.65;65.97
63535;BME280;55128;50.230;18.944;2023-02-02T15:14:49;98161.69;;;4.53;65.40
63535;BME280;55128;50.230;18.944;2023-02-02T15:25:30;98172.81;;;4.32;66.67
63535;BME280;55128;50.230;18.944;2023-02-02T15:30:33;98188.28;;;4.11;65.05
63535;BME280;55128;50.230;18.944;2023-02-02T15:35:37;98204.47;;;4.27;65.81
63535;BME280;55128;50.230;18.944;2023-02-02T15:40:38;98207.31;;;4.19;65.31
63535;BME280;55128;50.230;18.944;2023-02-02T15:45:54;98215.06;;;4.24;65.78
63535;BME280;55128;50.230;18.944;2023-02-02T15:51:03;98233.34;;;4.28;67.84
63535;BME280;55128;50.230;18.944;2023-02-02T15:56:19;98239.41;;;4.31;67.88
63535;BME280;55128;50.230;18.944;2023-02-02T16:01:22;98250.88;;;4.28;66.76
63535;BME280;55128;50.230;18.944;2023-02-02T16:06:23;98263.91;;;4.31;66.32
63535;BME280;55128;50.230;18.944;2023-02-02T16:11:23;98274.19;;;4.06;66.02
63535;BME280;55128;50.230;18.944;2023-02-02T16:16:29;98282.50;;;4.23;65.09
63535;BME280;55128;50.230;18.944;2023-02-02T16:21:32;98294.38;;;4.05;66.11
63535;BME280;55128;50.230;18.944;2023-02-02T16:26:34;98302.94;;;4.12;66.07
63535;BME280;55128;50.230;18.944;2023-02-02T16:31:34;98306.50;;;4.09;66.09
63535;BME280;55128;50.230;18.944;2023-02-02T16:36:35;98321.84;;;4.26;67.05
63535;BME280;55128;50.230;18.944;2023-02-02T16:41:35;98324.69;;;4.17;69.88
63535;BME280;55128;50.230;18.944;2023-02-02T16:46:44;98337.41;;;4.00;71.30
63535;BME280;55128;50.230;18.944;2023-02-02T16:51:47;98353.16;;;4.00;72.31
63535;BME280;55128;50.230;18.944;2023-02-02T16:56:58;98361.84;;;4.02;70.85
63535;BME280;55128;50.230;18.944;2023-02-02T17:02:03;98385.69;;;3.94;69.95
63535;BME280;55128;50.230;18.944;2023-02-02T17:07:16;98395.78;;;3.72;68.03
63535;BME280;55128;50.230;18.944;2023-02-02T17:17:17;98415.06;;;3.69;66.13
63535;BME280;55128;50.230;18.944;2023-02-02T17:22:20;98438.34;;;3.44;64.74
63535;BME280;55128;50.230;18.944;2023-02-02T17:27:26;98432.41;;;3.36;63.41
63535;BME280;55128;50.230;18.944;2023-02-02T17:32:27;98452.84;;;3.19;63.66
63535;BME280;55128;50.230;18.944;2023-02-02T17:37:27;98456.84;;;3.38;62.42
63535;BME280;55128;50.230;18.944;2023-02-02T17:42:28;98466.53;;;3.36;61.84
63535;BME280;55128;50.230;18.944;2023-02-02T17:47:29;98478.97;;;3.25;62.27
63535;BME280;55128;50.230;18.944;2023-02-02T17:52:30;98488.00;;;3.10;62.37
63535;BME280;55128;50.230;18.944;2023-02-02T17:57:31;98494.28;;;2.98;61.95
63535;BME280;55128;50.230;18.944;2023-02-02T18:02:31;98508.75;;;2.71;62.12
63535;BME280;55128;50.230;18.944;2023-02-02T18:07:32;98524.50;;;2.68;61.95
63535;BME280;55128;50.230;18.944;2023-02-02T18:12:32;98525.47;;;2.64;61.73
63535;BME280;55128;50.230;18.944;2023-02-02T18:17:34;98539.41;;;2.64;61.07
63535;BME280;55128;50.230;18.944;2023-02-02T18:22:34;98549.97;;;2.61;60.67
63535;BME280;55128;50.230;18.944;2023-02-02T18:27:36;98545.41;;;2.72;60.69
63535;BME280;55128;50.230;18.944;2023-02-02T18:32:37;98564.41;;;2.87;60.82
63535;BME280;55128;50.230;18.944;2023-02-02T18:37:39;98567.09;;;2.82;60.11
63535;BME280;55128;50.230;18.944;2023-02-02T18:42:39;98592.31;;;2.91;60.22
63535;BME280;55128;50.230;18.944;2023-02-02T18:47:40;98591.69;;;2.73;60.01
63535;BME280;55128;50.230;18.944;2023-02-02T18:52:40;98597.63;;;2.85;60.73
63535;BME280;55128;50.230;18.944;2023-02-02T18:57:40;98605.31;;;2.97;59.96
63535;BME280;55128;50.230;18.944;2023-02-02T19:02:41;98617.59;;;2.95;59.56
63535;BME280;55128;50.230;18.944;2023-02-02T19:07:41;98631.81;;;2.79;60.43
63535;BME280;55128;50.230;18.944;2023-02-02T19:12:57;98640.31;;;2.95;60.48
63535;BME280;55128;50.230;18.944;2023-02-02T19:17:57;98663.25;;;2.82;60.25
63535;BME280;55128;50.230;18.944;2023-02-02T19:23:01;98672.94;;;2.73;60.94
63535;BME280;55128;50.230;18.944;2023-02-02T19:28:35;98687.84;;;2.70;61.57
63535;BME280;55128;50.230;18.944;2023-02-02T19:33:45;98695.59;;;2.79;61.82
63535;BME280;55128;50.230;18.944;2023-02-02T19:38:47;98700.00;;;2.76;61.97
63535;BME280;55128;50.230;18.944;2023-02-02T19:43:53;98708.84;;;2.68;61.87
63535;BME280;55128;50.230;18.944;2023-02-02T19:49:12;98722.97;;;2.55;62.70
63535;BME280;55128;50.230;18.944;2023-02-02T19:59:31;98751.75;;;2.58;63.53
63535;BME280;55128;50.230;18.944;2023-02-02T20:04:33;98754.50;;;2.49;63.90
63535;BME280;55128;50.230;18.944;2023-02-02T20:09:34;98751.03;;;2.45;64.04
63535;BME280;55128;50.230;18.944;2023-02-02T20:14:36;98761.47;;;2.50;64.20
63535;BME280;55128;50.230;18.944;2023-02-02T20:19:39;98767.63;;;2.46;63.95
63535;BME280;55128;50.230;18.944;2023-02-02T20:25:22;98775.63;;;2.30;64.67
63535;BME280;55128;50.230;18.944;2023-02-02T20:30:53;98798.28;;;2.34;64.71
63535;BME280;55128;50.230;18.944;2023-02-02T20:35:57;98802.66;;;2.37;65.13
63535;BME280;55128;50.230;18.944;2023-02-02T20:40:58;98807.22;;;2.18;66.07
63535;BME280;55128;50.230;18.944;2023-02-02T20:45:58;98811.53;;;2.19;66.60
63535;BME280;55128;50.230;18.944;2023-02-02T20:51:05;98814.91;;;2.35;65.74
63535;BME280;55128;50.230;18.944;2023-02-02T21:24:54;98858.59;;;2.28;66.03
63535;BME280;55128;50.230;18.944;2023-02-02T21:29:55;98869.09;;;2.27;65.99
63535;BME280;55128;50.230;18.944;2023-02-02T21:34:55;98867.31;;;2.33;66.22
63535;BME280;55128;50.230;18.944;2023-02-02T21:39:58;98883.94;;;2.29;66.28
63535;BME280;55128;50.230;18.944;2023-02-02T21:50:24;98888.41;;;2.15;66.60
63535;BME280;55128;50.230;18.944;2023-02-02T21:55:36;98902.34;;;2.19;66.35
63535;BME280;55128;50.230;18.944;2023-02-02T22:00:37;98892.78;;;2.13;66.16
63535;BME280;55128;50.230;18.944;2023-02-02T22:05:37;98908.50;;;2.11;66.04
63535;BME280;55128;50.230;18.944;2023-02-02T22:10:39;98905.16;;;1.92;66.98
63535;BME280;55128;50.230;18.944;2023-02-02T22:15:42;98914.69;;;2.03;66.54
63535;BME280;55128;50.230;18.944;2023-02-02T22:20:47;98926.09;;;1.89;66.52
63535;BME280;55128;50.230;18.944;2023-02-02T22:25:52;98922.59;;;1.93;66.31
63535;BME280;55128;50.230;18.944;2023-02-02T22:30:54;98926.94;;;1.96;67.05
63535;BME280;55128;50.230;18.944;2023-02-02T22:35:55;98934.72;;;2.07;66.63
63535;BME280;55128;50.230;18.944;2023-02-02T22:40:55;98939.28;;;1.77;66.34
63535;BME280;55128;50.230;18.944;2023-02-02T22:45:55;98945.28;;;1.94;67.26
63535;BME280;55128;50.230;18.944;2023-02-02T22:50:56;98954.81;;;2.03;66.78
63535;BME280;55128;50.230;18.944;2023-02-02T22:55:57;98960.13;;;1.91;66.80
63535;BME280;55128;50.230;18.944;2023-02-02T23:00:57;98974.03;;;2.01;66.45
63535;BME280;55128;50.230;18.944;2023-02-02T23:05:57;98974.88;;;2.07;66.87
63535;BME280;55128;50.230;18.944;2023-02-02T23:10:58;98983.63;;;1.99;66.27
63535;BME280;55128;50.230;18.944;2023-02-02T23:15:58;98994.09;;;1.99;66.52
63535;BME280;55128;50.230;18.944;2023-02-02T23:20:59;98984.53;;;1.96;66.20
63535;BME280;55128;50.230;18.944;2023-02-02T23:25:59;98986.34;;;1.83;66.56
63535;BME280;55128;50.230;18.944;2023-02-02T23:30:59;98989.81;;;1.88;66.53
63535;BME280;55128;50.230;18.944;2023-02-02T23:36:01;98989.91;;;1.68;67.20
63535;BME280;55128;50.230;18.944;2023-02-02T23:41:01;98999.44;;;1.80;66.80
63535;BME280;55128;50.230;18.944;2023-02-02T23:46:01;99013.44;;;1.73;66.98
63535;BME280;55128;50.230;18.944;2023-02-02T23:51:02;99024.75;;;1.80;66.89
63535;BME280;55128;50.230;18.944;2023-02-02T23:56:02;99031.72;;;1.81;66.73
